sensor_id;sensor_type;location;lat;lon;timestamp;P1;durP1;ratioP1;P2;durP2;ratioP2
14181;SDS011;7171;50.936;6.764;2024-01-06T00:01:28;3.17;;;2.20;;
14181;SDS011;7171;50.936;6.764;2024-01-06T00:03:55;2.30;;;2.10;;
14181;SDS011;7171;50.936;6.764;2024-01-06T00:06:23;2.30;;;2.10;;
14181;SDS011;7171;50.936;6.764;2024-01-06T00:08:50;2.87;;;2.53;;
14181;SDS011;7171;50.936;6.764;2024-01-06T00:11:19;5.37;;;2.43;;
14181;SDS011;7171;50.936;6.764;2024-01-06T00:13:45;4.40;;;2.90;;
14181;SDS011;7171;50.936;6.764;2024-01-06T00:16:12;2.90;;;2.00;;
14181;SDS011;7171;50.936;6.764;2024-01-06T00:18:39;2.13;;;1.90;;
14181;SDS011;7171;50.936;6.764;2024-01-06T00:21:06;3.47;;;2.50;;
14181;SDS011;7171;50.936;6.764;2024-01-06T00:23:34;2.73;;;2.30;;
14181;SDS011;7171;50.936;6.764;2024-01-06T00:26:00;5.00;;;3.00;;
14181;SDS011;7171;50.936;6.764;2024-01-06T00:28:27;3.20;;;2.87;;
14181;SDS011;7171;50.936;6.764;2024-01-06T00:30:54;3.07;;;2.50;;
14181;SDS011;7171;50.936;6.764;2024-01-06T00:33:21;3.27;;;2.97;;
14181;SDS011;7171;50.936;6.764;2024-01-06T00:35:48;2.50;;;2.30;;
14181;SDS011;7171;50.936;6.764;2024-01-06T00:38:14;4.90;;;2.90;;
14181;SDS011;7171;50.936;6.764;2024-01-06T00:40:43;5.80;;;2.90;;
14181;SDS011;7171;50.936;6.764;2024-01-06T00:43:10;4.20;;;2.80;;
14181;SDS011;7171;50.936;6.764;2024-01-06T00:45:37;3.23;;;2.93;;
14181;SDS011;7171;50.936;6.764;2024-01-06T00:48:04;3.13;;;2.60;;
14181;SDS011;7171;50.936;6.764;2024-01-06T00:50:31;3.60;;;3.03;;
14181;SDS011;7171;50.936;6.764;2024-01-06T00:52:58;3.40;;;2.70;;
14181;SDS011;7171;50.936;6.764;2024-01-06T00:55:24;9.73;;;3.47;;
14181;SDS011;7171;50.936;6.764;2024-01-06T00:57:52;4.33;;;2.90;;
14181;SDS011;7171;50.936;6.764;2024-01-06T01:00:19;3.20;;;2.90;;
14181;SDS011;7171;50.936;6.764;2024-01-06T01:02:47;5.00;;;3.27;;
14181;SDS011;7171;50.936;6.764;2024-01-06T01:05:14;3.43;;;3.13;;
14181;SDS011;7171;50.936;6.764;2024-01-06T01:07:41;4.03;;;3.70;;
14181;SDS011;7171;50.936;6.764;2024-01-06T01:10:07;4.00;;;3.53;;
14181;SDS011;7171;50.936;6.764;2024-01-06T01:12:35;3.90;;;2.90;;
14181;SDS011;7171;50.936;6.764;2024-01-06T01:15:03;5.97;;;3.50;;
14181;SDS011;7171;50.936;6.764;2024-01-06T01:17:30;4.83;;;3.67;;
14181;SDS011;7171;50.936;6.764;2024-01-06T01:19:57;4.27;;;3.30;;
14181;SDS011;7171;50.936;6.764;2024-01-06T01:22:23;3.93;;;3.13;;
14181;SDS011;7171;50.936;6.764;2024-01-06T01:24:50;4.90;;;3.10;;
14181;SDS011;7171;50.936;6.764;2024-01-06T01:27:17;3.00;;;2.80;;
14181;SDS011;7171;50.936;6.764;2024-01-06T01:29:43;4.57;;;3.10;;
14181;SDS011;7171;50.936;6.764;2024-01-06T01:32:11;4.23;;;3.27;;
14181;SDS011;7171;50.936;6.764;2024-01-06T01:34:38;5.67;;;4.00;;
14181;SDS011;7171;50.936;6.764;2024-01-06T01:37:05;4.20;;;3.30;;
14181;SDS011;7171;50.936;6.764;2024-01-06T01:39:31;4.37;;;3.80;;
14181;SDS011;7171;50.936;6.764;2024-01-06T01:41:58;6.00;;;3.53;;
14181;SDS011;7171;50.936;6.764;2024-01-06T01:44:25;3.63;;;3.33;;
14181;SDS011;7171;50.936;6.764;2024-01-06T01:46:51;5.50;;;3.57;;
14181;SDS011;7171;50.936;6.764;2024-01-06T01:49:19;8.07;;;3.20;;
14181;SDS011;7171;50.936;6.764;2024-01-06T01:51:47;4.37;;;3.43;;
14181;SDS011;7171;50.936;6.764;2024-01-06T01:54:15;5.53;;;4.20;;
14181;SDS011;7171;50.936;6.764;2024-01-06T01:56:42;5.33;;;3.73;;
14181;SDS011;7171;50.936;6.764;2024-01-06T01:59:09;6.63;;;4.10;;
14181;SDS011;7171;50.936;6.764;2024-01-06T02:01:38;3.93;;;3.30;;
14181;SDS011;7171;50.936;6.764;2024-01-06T02:04:05;5.53;;;3.83;;
14181;SDS011;7171;50.936;6.764;2024-01-06T02:06:33;4.73;;;3.53;;
14181;SDS011;7171;50.936;6.764;2024-01-06T02:09:00;4.70;;;4.00;;
14181;SDS011;7171;50.936;6.764;2024-01-06T02:11:27;3.53;;;2.93;;
14181;SDS011;7171;50.936;6.764;2024-01-06T02:13:53;5.33;;;3.17;;
14181;SDS011;7171;50.936;6.764;2024-01-06T02:16:20;5.07;;;3.23;;
14181;SDS011;7171;50.936;6.764;2024-01-06T02:18:47;4.80;;;3.77;;
14181;SDS011;7171;50.936;6.764;2024-01-06T02:21:14;5.20;;;3.90;;
14181;SDS011;7171;50.936;6.764;2024-01-06T02:23:42;5.07;;;4.20;;
14181;SDS011;7171;50.936;6.764;2024-01-06T02:26:09;5.50;;;3.80;;
14181;SDS011;7171;50.936;6.764;2024-01-06T02:28:36;4.07;;;3.57;;
14181;SDS011;7171;50.936;6.764;2024-01-06T02:31:03;4.00;;;3.60;;
14181;SDS011;7171;50.936;6.764;2024-01-06T02:33:29;6.17;;;4.30;;
14181;SDS011;7171;50.936;6.764;2024-01-06T02:35:56;5.97;;;3.37;;
14181;SDS011;7171;50.936;6.764;2024-01-06T02:38:23;4.90;;;4.33;;
14181;SDS011;7171;50.936;6.764;2024-01-06T02:40:51;5.90;;;4.37;;
14181;SDS011;7171;50.936;6.764;2024-01-06T02:43:17;6.20;;;4.90;;
14181;SDS011;7171;50.936;6.764;2024-01-06T02:45:44;6.03;;;4.63;;
14181;SDS011;7171;50.936;6.764;2024-01-06T02:48:11;7.37;;;4.80;;
14181;SDS011;7171;50.936;6.764;2024-01-06T02:50:38;7.07;;;4.63;;
14181;SDS011;7171;50.936;6.764;2024-01-06T02:53:05;6.90;;;4.77;;
14181;SDS011;7171;50.936;6.764;2024-01-06T02:55:31;8.90;;;5.50;;
14181;SDS011;7171;50.936;6.764;2024-01-06T02:57:59;9.80;;;5.30;;
14181;SDS011;7171;50.936;6.764;2024-01-06T03:00:26;7.70;;;4.80;;
14181;SDS011;7171;50.936;6.764;2024-01-06T03:02:53;6.10;;;5.20;;
14181;SDS011;7171;50.936;6.764;2024-01-06T03:05:19;8.20;;;5.07;;
14181;SDS011;7171;50.936;6.764;2024-01-06T03:07:46;10.90;;;6.33;;
14181;SDS011;7171;50.936;6.764;2024-01-06T03:10:13;9.83;;;5.70;;
14181;SDS011;7171;50.936;6.764;2024-01-06T03:12:40;9.87;;;5.70;;
14181;SDS011;7171;50.936;6.764;2024-01-06T03:15:08;9.77;;;6.53;;
14181;SDS011;7171;50.936;6.764;2024-01-06T03:17:35;9.73;;;6.50;;
14181;SDS011;7171;50.936;6.764;2024-01-06T03:20:02;9.40;;;5.93;;
14181;SDS011;7171;50.936;6.764;2024-01-06T03:22:30;11.87;;;7.23;;
14181;SDS011;7171;50.936;6.764;2024-01-06T03:24:56;13.83;;;6.63;;
14181;SDS011;7171;50.936;6.764;2024-01-06T03:27:23;7.50;;;5.50;;
14181;SDS011;7171;50.936;6.764;2024-01-06T03:29:50;10.53;;;6.70;;
14181;SDS011;7171;50.936;6.764;2024-01-06T03:32:18;15.83;;;7.90;;
14181;SDS011;7171;50.936;6.764;2024-01-06T03:34:45;10.60;;;6.90;;
14181;SDS011;7171;50.936;6.764;2024-01-06T03:37:11;9.17;;;7.17;;
14181;SDS011;7171;50.936;6.764;2024-01-06T03:39:38;12.63;;;7.27;;
14181;SDS011;7171;50.936;6.764;2024-01-06T03:42:05;11.87;;;7.53;;
14181;SDS011;7171;50.936;6.764;2024-01-06T03:44:32;12.53;;;7.97;;
14181;SDS011;7171;50.936;6.764;2024-01-06T03:46:59;13.27;;;7.70;;
14181;SDS011;7171;50.936;6.764;2024-01-06T03:49:27;15.67;;;7.87;;
14181;SDS011;7171;50.936;6.764;2024-01-06T03:51:53;13.43;;;7.50;;
14181;SDS011;7171;50.936;6.764;2024-01-06T03:54:20;10.93;;;7.00;;
14181;SDS011;7171;50.936;6.764;2024-01-06T03:56:47;12.37;;;7.57;;
14181;SDS011;7171;50.936;6.764;2024-01-06T03:59:14;13.80;;;7.10;;
14181;SDS011;7171;50.936;6.764;2024-01-06T04:01:41;11.70;;;7.93;;
14181;SDS011;7171;50.936;6.764;2024-01-06T04:04:07;13.37;;;7.57;;
14181;SDS011;7171;50.936;6.764;2024-01-06T04:06:35;14.80;;;9.17;;
14181;SDS011;7171;50.936;6.764;2024-01-06T04:09:02;11.87;;;7.83;;
14181;SDS011;7171;50.936;6.764;2024-01-06T04:11:30;15.17;;;8.40;;
14181;SDS011;7171;50.936;6.764;2024-01-06T04:13:57;12.60;;;8.37;;
14181;SDS011;7171;50.936;6.764;2024-01-06T04:16:22;15.63;;;8.67;;
14181;SDS011;7171;50.936;6.764;2024-01-06T04:18:49;15.90;;;9.17;;
14181;SDS011;7171;50.936;6.764;2024-01-06T04:21:16;10.03;;;7.13;;
14181;SDS011;7171;50.936;6.764;2024-01-06T04:23:44;13.13;;;8.27;;
14181;SDS011;7171;50.936;6.764;2024-01-06T04:26:10;13.10;;;7.93;;
14181;SDS011;7171;50.936;6.764;2024-01-06T04:28:37;11.47;;;7.63;;
14181;SDS011;7171;50.936;6.764;2024-01-06T04:31:04;14.37;;;9.07;;
14181;SDS011;7171;50.936;6.764;2024-01-06T04:33:30;15.20;;;8.67;;
14181;SDS011;7171;50.936;6.764;2024-01-06T04:35:58;12.20;;;8.87;;
14181;SDS011;7171;50.936;6.764;2024-01-06T04:38:26;12.77;;;7.83;;
14181;SDS011;7171;50.936;6.764;2024-01-06T04:40:54;15.33;;;8.63;;
14181;SDS011;7171;50.936;6.764;2024-01-06T04:43:21;13.07;;;8.50;;
14181;SDS011;7171;50.936;6.764;2024-01-06T04:45:48;12.63;;;7.97;;
14181;SDS011;7171;50.936;6.764;2024-01-06T04:48:15;13.60;;;8.60;;
14181;SDS011;7171;50.936;6.764;2024-01-06T04:50:42;16.33;;;8.07;;
14181;SDS011;7171;50.936;6.764;2024-01-06T04:53:08;13.40;;;8.70;;
14181;SDS011;7171;50.936;6.764;2024-01-06T04:55:35;12.50;;;7.70;;
14181;SDS011;7171;50.936;6.764;2024-01-06T04:58:03;14.40;;;8.70;;
14181;SDS011;7171;50.936;6.764;2024-01-06T05:00:30;14.90;;;9.10;;
14181;SDS011;7171;50.936;6.764;2024-01-06T05:02:57;13.87;;;8.70;;
14181;SDS011;7171;50.936;6.764;2024-01-06T05:05:24;13.37;;;7.07;;
14181;SDS011;7171;50.936;6.764;2024-01-06T05:07:50;9.17;;;4.90;;
14181;SDS011;7171;50.936;6.764;2024-01-06T05:10:17;9.37;;;5.17;;
14181;SDS011;7171;50.936;6.764;2024-01-06T05:12:44;9.77;;;6.37;;
14181;SDS011;7171;50.936;6.764;2024-01-06T05:15:12;10.90;;;5.20;;
14181;SDS011;7171;50.936;6.764;2024-01-06T05:17:38;10.60;;;4.67;;
14181;SDS011;7171;50.936;6.764;2024-01-06T05:20:06;7.23;;;4.63;;
14181;SDS011;7171;50.936;6.764;2024-01-06T05:22:34;7.83;;;4.87;;
14181;SDS011;7171;50.936;6.764;2024-01-06T05:25:00;9.03;;;5.17;;
14181;SDS011;7171;50.936;6.764;2024-01-06T05:27:27;7.93;;;4.43;;
14181;SDS011;7171;50.936;6.764;2024-01-06T05:29:54;7.73;;;4.60;;
14181;SDS011;7171;50.936;6.764;2024-01-06T05:32:22;8.97;;;4.63;;
14181;SDS011;7171;50.936;6.764;2024-01-06T05:34:49;11.17;;;4.93;;
14181;SDS011;7171;50.936;6.764;2024-01-06T05:37:15;4.47;;;3.73;;
14181;SDS011;7171;50.936;6.764;2024-01-06T05:39:42;11.33;;;4.73;;
14181;SDS011;7171;50.936;6.764;2024-01-06T05:42:09;8.83;;;4.53;;
14181;SDS011;7171;50.936;6.764;2024-01-06T05:44:37;5.10;;;3.40;;
14181;SDS011;7171;50.936;6.764;2024-01-06T05:47:04;7.70;;;4.27;;
14181;SDS011;7171;50.936;6.764;2024-01-06T05:49:32;6.17;;;3.00;;
14181;SDS011;7171;50.936;6.764;2024-01-06T05:51:58;6.67;;;3.80;;
14181;SDS011;7171;50.936;6.764;2024-01-06T05:54:25;7.40;;;3.80;;
14181;SDS011;7171;50.936;6.764;2024-01-06T05:56:52;6.27;;;4.17;;
14181;SDS011;7171;50.936;6.764;2024-01-06T05:59:19;6.77;;;4.00;;
14181;SDS011;7171;50.936;6.764;2024-01-06T06:01:45;7.80;;;4.20;;
14181;SDS011;7171;50.936;6.764;2024-01-06T06:04:12;5.77;;;3.63;;
14181;SDS011;7171;50.936;6.764;2024-01-06T06:06:40;5.27;;;3.73;;
14181;SDS011;7171;50.936;6.764;2024-01-06T06:09:07;7.33;;;3.43;;
14181;SDS011;7171;50.936;6.764;2024-01-06T06:11:35;6.27;;;3.97;;
14181;SDS011;7171;50.936;6.764;2024-01-06T06:14:01;4.93;;;3.10;;
14181;SDS011;7171;50.936;6.764;2024-01-06T06:16:29;4.13;;;2.70;;
14181;SDS011;7171;50.936;6.764;2024-01-06T06:18:56;6.30;;;4.07;;
14181;SDS011;7171;50.936;6.764;2024-01-06T06:21:23;5.27;;;3.27;;
14181;SDS011;7171;50.936;6.764;2024-01-06T06:23:51;4.90;;;3.43;;
14181;SDS011;7171;50.936;6.764;2024-01-06T06:26:17;5.97;;;3.90;;
14181;SDS011;7171;50.936;6.764;2024-01-06T06:28:44;8.10;;;3.63;;
14181;SDS011;7171;50.936;6.764;2024-01-06T06:31:11;5.87;;;3.60;;
14181;SDS011;7171;50.936;6.764;2024-01-06T06:33:38;6.73;;;4.10;;
14181;SDS011;7171;50.936;6.764;2024-01-06T06:36:05;6.33;;;3.60;;
14181;SDS011;7171;50.936;6.764;2024-01-06T06:38:32;9.10;;;3.77;;
14181;SDS011;7171;50.936;6.764;2024-01-06T06:41:00;8.50;;;3.73;;
14181;SDS011;7171;50.936;6.764;2024-01-06T06:43:27;7.77;;;4.13;;
14181;SDS011;7171;50.936;6.764;2024-01-06T06:45:53;6.97;;;4.60;;
14181;SDS011;7171;50.936;6.764;2024-01-06T06:48:21;7.23;;;4.10;;
14181;SDS011;7171;50.936;6.764;2024-01-06T06:50:48;6.17;;;4.00;;
14181;SDS011;7171;50.936;6.764;2024-01-06T06:53:14;5.33;;;3.07;;
14181;SDS011;7171;50.936;6.764;2024-01-06T06:55:41;9.90;;;4.53;;
14181;SDS011;7171;50.936;6.764;2024-01-06T06:58:09;7.13;;;4.43;;
14181;SDS011;7171;50.936;6.764;2024-01-06T07:00:36;7.70;;;4.07;;
14181;SDS011;7171;50.936;6.764;2024-01-06T07:03:03;7.93;;;4.77;;
14181;SDS011;7171;50.936;6.764;2024-01-06T07:05:30;9.90;;;4.00;;
14181;SDS011;7171;50.936;6.764;2024-01-06T07:07:57;8.30;;;4.47;;
14181;SDS011;7171;50.936;6.764;2024-01-06T07:10:25;7.23;;;4.53;;
14181;SDS011;7171;50.936;6.764;2024-01-06T07:12:52;7.77;;;3.93;;
14181;SDS011;7171;50.936;6.764;2024-01-06T07:15:20;5.67;;;3.93;;
14181;SDS011;7171;50.936;6.764;2024-01-06T07:17:47;7.50;;;4.07;;
14181;SDS011;7171;50.936;6.764;2024-01-06T07:20:14;8.30;;;4.30;;
14181;SDS011;7171;50.936;6.764;2024-01-06T07:22:41;5.63;;;3.53;;
14181;SDS011;7171;50.936;6.764;2024-01-06T07:25:08;9.77;;;5.13;;
14181;SDS011;7171;50.936;6.764;2024-01-06T07:27:35;8.10;;;4.93;;
14181;SDS011;7171;50.936;6.764;2024-01-06T07:30:02;9.77;;;5.77;;
14181;SDS011;7171;50.936;6.764;2024-01-06T07:32:31;11.90;;;6.10;;
14181;SDS011;7171;50.936;6.764;2024-01-06T07:34:58;9.63;;;4.20;;
14181;SDS011;7171;50.936;6.764;2024-01-06T07:37:24;8.13;;;4.53;;
14181;SDS011;7171;50.936;6.764;2024-01-06T07:39:51;7.23;;;4.57;;
14181;SDS011;7171;50.936;6.764;2024-01-06T07:42:18;8.87;;;4.30;;
14181;SDS011;7171;50.936;6.764;2024-01-06T07:44:45;7.10;;;4.23;;
14181;SDS011;7171;50.936;6.764;2024-01-06T07:47:10;7.43;;;4.10;;
14181;SDS011;7171;50.936;6.764;2024-01-06T07:49:38;8.20;;;4.50;;
14181;SDS011;7171;50.936;6.764;2024-01-06T07:52:05;6.87;;;4.67;;
14181;SDS011;7171;50.936;6.764;2024-01-06T07:54:32;10.90;;;5.07;;
14181;SDS011;7171;50.936;6.764;2024-01-06T07:56:59;5.93;;;4.17;;
14181;SDS011;7171;50.936;6.764;2024-01-06T07:59:25;8.50;;;5.60;;
14181;SDS011;7171;50.936;6.764;2024-01-06T08:01:52;8.20;;;4.13;;
14181;SDS011;7171;50.936;6.764;2024-01-06T08:04:19;9.90;;;4.40;;
14181;SDS011;7171;50.936;6.764;2024-01-06T08:06:46;8.90;;;4.70;;
14181;SDS011;7171;50.936;6.764;2024-01-06T08:09:12;10.03;;;5.20;;
14181;SDS011;7171;50.936;6.764;2024-01-06T08:11:39;6.83;;;4.70;;
14181;SDS011;7171;50.936;6.764;2024-01-06T08:14:07;8.57;;;5.80;;
14181;SDS011;7171;50.936;6.764;2024-01-06T08:16:35;9.13;;;5.47;;
14181;SDS011;7171;50.936;6.764;2024-01-06T08:19:02;7.13;;;4.47;;
14181;SDS011;7171;50.936;6.764;2024-01-06T08:21:29;8.60;;;4.10;;
14181;SDS011;7171;50.936;6.764;2024-01-06T08:23:57;10.80;;;5.10;;
14181;SDS011;7171;50.936;6.764;2024-01-06T08:26:23;7.97;;;4.83;;
14181;SDS011;7171;50.936;6.764;2024-01-06T08:28:50;10.30;;;5.67;;
14181;SDS011;7171;50.936;6.764;2024-01-06T08:31:17;9.87;;;6.03;;
14181;SDS011;7171;50.936;6.764;2024-01-06T08:33:44;6.93;;;4.87;;
14181;SDS011;7171;50.936;6.764;2024-01-06T08:36:11;8.13;;;5.57;;
14181;SDS011;7171;50.936;6.764;2024-01-06T08:38:37;6.17;;;4.70;;
14181;SDS011;7171;50.936;6.764;2024-01-06T08:41:05;9.60;;;5.07;;
14181;SDS011;7171;50.936;6.764;2024-01-06T08:43:32;13.13;;;5.07;;
14181;SDS011;7171;50.936;6.764;2024-01-06T08:45:59;6.43;;;4.30;;
14181;SDS011;7171;50.936;6.764;2024-01-06T08:48:27;6.27;;;4.70;;
14181;SDS011;7171;50.936;6.764;2024-01-06T08:50:53;8.60;;;5.27;;
14181;SDS011;7171;50.936;6.764;2024-01-06T08:53:20;9.17;;;4.77;;
14181;SDS011;7171;50.936;6.764;2024-01-06T08:55:47;11.33;;;4.90;;
14181;SDS011;7171;50.936;6.764;2024-01-06T08:58:15;8.20;;;4.87;;
14181;SDS011;7171;50.936;6.764;2024-01-06T09:00:42;8.00;;;5.27;;
14181;SDS011;7171;50.936;6.764;2024-01-06T09:03:09;8.13;;;4.30;;
14181;SDS011;7171;50.936;6.764;2024-01-06T09:05:37;7.43;;;4.47;;
14181;SDS011;7171;50.936;6.764;2024-01-06T09:08:04;16.43;;;5.70;;
14181;SDS011;7171;50.936;6.764;2024-01-06T09:10:32;8.60;;;5.50;;
14181;SDS011;7171;50.936;6.764;2024-01-06T09:12:58;10.30;;;5.00;;
14181;SDS011;7171;50.936;6.764;2024-01-06T09:15:27;8.87;;;5.37;;
14181;SDS011;7171;50.936;6.764;2024-01-06T09:17:54;6.67;;;4.43;;
14181;SDS011;7171;50.936;6.764;2024-01-06T09:20:21;13.23;;;5.50;;
14181;SDS011;7171;50.936;6.764;2024-01-06T09:22:48;9.40;;;5.00;;
14181;SDS011;7171;50.936;6.764;2024-01-06T09:25:15;8.40;;;4.17;;
14181;SDS011;7171;50.936;6.764;2024-01-06T09:27:42;9.73;;;5.27;;
14181;SDS011;7171;50.936;6.764;2024-01-06T09:30:09;7.80;;;4.73;;
14181;SDS011;7171;50.936;6.764;2024-01-06T09:32:37;7.57;;;4.67;;
14181;SDS011;7171;50.936;6.764;2024-01-06T09:35:04;12.13;;;5.80;;
14181;SDS011;7171;50.936;6.764;2024-01-06T09:37:31;6.83;;;4.77;;
14181;SDS011;7171;50.936;6.764;2024-01-06T09:39:58;9.47;;;5.33;;
14181;SDS011;7171;50.936;6.764;2024-01-06T09:42:25;6.33;;;3.87;;
14181;SDS011;7171;50.936;6.764;2024-01-06T09:44:52;8.60;;;4.83;;
14181;SDS011;7171;50.936;6.764;2024-01-06T09:47:18;9.00;;;4.80;;
14181;SDS011;7171;50.936;6.764;2024-01-06T09:49:50;7.37;;;4.60;;
14181;SDS011;7171;50.936;6.764;2024-01-06T09:52:19;12.77;;;4.93;;
14181;SDS011;7171;50.936;6.764;2024-01-06T09:54:49;8.77;;;5.60;;
14181;SDS011;7171;50.936;6.764;2024-01-06T09:57:18;11.20;;;5.23;;
14181;SDS011;7171;50.936;6.764;2024-01-06T09:59:45;13.00;;;5.70;;
14181;SDS011;7171;50.936;6.764;2024-01-06T10:02:12;7.97;;;4.50;;
14181;SDS011;7171;50.936;6.764;2024-01-06T10:04:41;6.87;;;4.23;;
14181;SDS011;7171;50.936;6.764;2024-01-06T10:07:10;6.40;;;3.60;;
14181;SDS011;7171;50.936;6.764;2024-01-06T10:09:38;7.23;;;3.20;;
14181;SDS011;7171;50.936;6.764;2024-01-06T10:12:06;6.50;;;3.77;;
14181;SDS011;7171;50.936;6.764;2024-01-06T10:14:33;5.30;;;3.47;;
14181;SDS011;7171;50.936;6.764;2024-01-06T10:17:00;7.23;;;4.07;;
14181;SDS011;7171;50.936;6.764;2024-01-06T10:19:27;5.83;;;4.00;;
14181;SDS011;7171;50.936;6.764;2024-01-06T10:21:54;6.70;;;3.60;;
14181;SDS011;7171;50.936;6.764;2024-01-06T10:24:26;5.47;;;3.63;;
14181;SDS011;7171;50.936;6.764;2024-01-06T10:26:53;5.20;;;3.30;;
14181;SDS011;7171;50.936;6.764;2024-01-06T10:29:20;4.00;;;3.10;;
14181;SDS011;7171;50.936;6.764;2024-01-06T10:31:46;8.10;;;3.47;;
14181;SDS011;7171;50.936;6.764;2024-01-06T10:34:14;7.93;;;4.67;;
14181;SDS011;7171;50.936;6.764;2024-01-06T10:36:41;7.27;;;3.30;;
14181;SDS011;7171;50.936;6.764;2024-01-06T10:39:08;6.10;;;3.23;;
14181;SDS011;7171;50.936;6.764;2024-01-06T10:41:36;6.43;;;4.43;;
14181;SDS011;7171;50.936;6.764;2024-01-06T10:44:04;6.13;;;3.83;;
14181;SDS011;7171;50.936;6.764;2024-01-06T10:46:32;7.47;;;3.43;;
14181;SDS011;7171;50.936;6.764;2024-01-06T10:49:00;5.63;;;3.47;;
14181;SDS011;7171;50.936;6.764;2024-01-06T10:51:27;7.10;;;4.33;;
14181;SDS011;7171;50.936;6.764;2024-01-06T10:53:55;6.73;;;3.43;;
14181;SDS011;7171;50.936;6.764;2024-01-06T10:56:26;6.33;;;3.73;;
14181;SDS011;7171;50.936;6.764;2024-01-06T10:58:56;5.87;;;3.80;;
14181;SDS011;7171;50.936;6.764;2024-01-06T11:01:23;8.13;;;4.67;;
14181;SDS011;7171;50.936;6.764;2024-01-06T11:03:50;8.57;;;3.67;;
14181;SDS011;7171;50.936;6.764;2024-01-06T11:06:18;6.30;;;3.40;;
14181;SDS011;7171;50.936;6.764;2024-01-06T11:08:46;5.20;;;3.93;;
14181;SDS011;7171;50.936;6.764;2024-01-06T11:11:17;6.00;;;3.40;;
14181;SDS011;7171;50.936;6.764;2024-01-06T11:13:44;7.83;;;4.67;;
14181;SDS011;7171;50.936;6.764;2024-01-06T11:16:13;7.33;;;3.57;;
14181;SDS011;7171;50.936;6.764;2024-01-06T11:18:59;8.27;;;4.27;;
14181;SDS011;7171;50.936;6.764;2024-01-06T11:21:26;7.20;;;4.40;;
14181;SDS011;7171;50.936;6.764;2024-01-06T11:24:10;6.77;;;4.07;;
14181;SDS011;7171;50.936;6.764;2024-01-06T11:26:41;6.87;;;4.53;;
14181;SDS011;7171;50.936;6.764;2024-01-06T11:29:09;4.40;;;3.30;;
14181;SDS011;7171;50.936;6.764;2024-01-06T11:31:37;6.47;;;4.20;;
14181;SDS011;7171;50.936;6.764;2024-01-06T11:34:11;5.13;;;3.73;;
14181;SDS011;7171;50.936;6.764;2024-01-06T11:36:39;8.57;;;4.30;;
14181;SDS011;7171;50.936;6.764;2024-01-06T11:39:05;10.27;;;3.70;;
14181;SDS011;7171;50.936;6.764;2024-01-06T11:41:46;3.90;;;3.50;;
14181;SDS011;7171;50.936;6.764;2024-01-06T11:44:17;4.73;;;3.43;;
14181;SDS011;7171;50.936;6.764;2024-01-06T11:46:47;7.60;;;3.93;;
14181;SDS011;7171;50.936;6.764;2024-01-06T11:49:15;7.37;;;3.50;;
14181;SDS011;7171;50.936;6.764;2024-01-06T11:51:42;5.40;;;3.73;;
14181;SDS011;7171;50.936;6.764;2024-01-06T11:54:09;6.27;;;3.77;;
14181;SDS011;7171;50.936;6.764;2024-01-06T11:56:37;7.10;;;3.50;;
14181;SDS011;7171;50.936;6.764;2024-01-06T11:59:04;5.80;;;3.47;;
14181;SDS011;7171;50.936;6.764;2024-01-06T12:01:35;6.67;;;3.70;;
14181;SDS011;7171;50.936;6.764;2024-01-06T12:04:04;11.03;;;3.87;;
14181;SDS011;7171;50.936;6.764;2024-01-06T12:06:31;5.77;;;4.00;;
14181;SDS011;7171;50.936;6.764;2024-01-06T12:09:07;5.27;;;4.00;;
14181;SDS011;7171;50.936;6.764;2024-01-06T12:11:35;6.33;;;4.00;;
14181;SDS011;7171;50.936;6.764;2024-01-06T12:14:02;4.90;;;3.37;;
14181;SDS011;7171;50.936;6.764;2024-01-06T12:16:29;5.93;;;3.70;;
14181;SDS011;7171;50.936;6.764;2024-01-06T12:18:57;6.97;;;4.57;;
14181;SDS011;7171;50.936;6.764;2024-01-06T12:21:27;7.00;;;4.30;;
14181;SDS011;7171;50.936;6.764;2024-01-06T12:23:54;4.43;;;3.23;;
14181;SDS011;7171;50.936;6.764;2024-01-06T12:26:37;6.50;;;3.60;;
14181;SDS011;7171;50.936;6.764;2024-01-06T12:29:04;5.80;;;4.20;;
14181;SDS011;7171;50.936;6.764;2024-01-06T12:31:30;6.23;;;4.13;;
14181;SDS011;7171;50.936;6.764;2024-01-06T12:33:58;6.40;;;3.70;;
14181;SDS011;7171;50.936;6.764;2024-01-06T12:36:26;10.37;;;3.50;;
14181;SDS011;7171;50.936;6.764;2024-01-06T12:38:53;8.30;;;5.20;;
14181;SDS011;7171;50.936;6.764;2024-01-06T12:41:21;5.93;;;4.20;;
14181;SDS011;7171;50.936;6.764;2024-01-06T12:43:48;6.70;;;3.60;;
14181;SDS011;7171;50.936;6.764;2024-01-06T12:46:15;8.50;;;3.73;;
14181;SDS011;7171;50.936;6.764;2024-01-06T12:48:42;5.10;;;3.90;;
14181;SDS011;7171;50.936;6.764;2024-01-06T12:51:08;6.47;;;3.77;;
14181;SDS011;7171;50.936;6.764;2024-01-06T12:53:37;8.27;;;3.80;;
14181;SDS011;7171;50.936;6.764;2024-01-06T12:56:04;9.13;;;3.90;;
14181;SDS011;7171;50.936;6.764;2024-01-06T12:58:32;8.63;;;4.93;;
14181;SDS011;7171;50.936;6.764;2024-01-06T13:00:59;7.90;;;5.07;;
14181;SDS011;7171;50.936;6.764;2024-01-06T13:03:27;8.17;;;4.60;;
14181;SDS011;7171;50.936;6.764;2024-01-06T13:05:54;6.40;;;4.07;;
14181;SDS011;7171;50.936;6.764;2024-01-06T13:08:21;9.30;;;4.40;;
14181;SDS011;7171;50.936;6.764;2024-01-06T13:10:49;6.53;;;4.37;;
14181;SDS011;7171;50.936;6.764;2024-01-06T13:13:16;7.33;;;4.43;;
14181;SDS011;7171;50.936;6.764;2024-01-06T13:15:42;8.00;;;5.17;;
14181;SDS011;7171;50.936;6.764;2024-01-06T13:18:11;9.17;;;4.77;;
14181;SDS011;7171;50.936;6.764;2024-01-06T13:20:38;6.97;;;4.20;;
14181;SDS011;7171;50.936;6.764;2024-01-06T13:23:06;10.37;;;5.20;;
14181;SDS011;7171;50.936;6.764;2024-01-06T13:25:33;8.33;;;4.27;;
14181;SDS011;7171;50.936;6.764;2024-01-06T13:28:01;8.37;;;4.70;;
14181;SDS011;7171;50.936;6.764;2024-01-06T13:30:28;7.73;;;4.03;;
14181;SDS011;7171;50.936;6.764;2024-01-06T13:32:55;7.97;;;4.53;;
14181;SDS011;7171;50.936;6.764;2024-01-06T13:35:22;7.17;;;4.20;;
14181;SDS011;7171;50.936;6.764;2024-01-06T13:37:50;7.37;;;4.57;;
14181;SDS011;7171;50.936;6.764;2024-01-06T13:40:16;8.23;;;4.00;;
14181;SDS011;7171;50.936;6.764;2024-01-06T13:42:45;8.23;;;4.67;;
14181;SDS011;7171;50.936;6.764;2024-01-06T13:45:13;10.30;;;4.03;;
14181;SDS011;7171;50.936;6.764;2024-01-06T13:47:40;5.57;;;3.63;;
14181;SDS011;7171;50.936;6.764;2024-01-06T13:50:09;8.00;;;4.93;;
14181;SDS011;7171;50.936;6.764;2024-01-06T13:52:38;6.60;;;4.23;;
14181;SDS011;7171;50.936;6.764;2024-01-06T13:55:05;9.17;;;5.47;;
14181;SDS011;7171;50.936;6.764;2024-01-06T13:57:33;10.20;;;5.57;;
14181;SDS011;7171;50.936;6.764;2024-01-06T14:00:02;8.33;;;5.77;;
14181;SDS011;7171;50.936;6.764;2024-01-06T14:02:31;8.03;;;5.27;;
14181;SDS011;7171;50.936;6.764;2024-01-06T14:04:57;7.97;;;4.57;;
14181;SDS011;7171;50.936;6.764;2024-01-06T14:07:24;9.37;;;5.63;;
14181;SDS011;7171;50.936;6.764;2024-01-06T14:09:52;9.63;;;5.50;;
14181;SDS011;7171;50.936;6.764;2024-01-06T14:12:18;9.43;;;5.10;;
14181;SDS011;7171;50.936;6.764;2024-01-06T14:14:45;8.20;;;4.87;;
14181;SDS011;7171;50.936;6.764;2024-01-06T14:17:12;9.03;;;6.03;;
14181;SDS011;7171;50.936;6.764;2024-01-06T14:19:40;8.93;;;5.23;;
14181;SDS011;7171;50.936;6.764;2024-01-06T14:22:07;9.80;;;5.67;;
14181;SDS011;7171;50.936;6.764;2024-01-06T14:24:33;7.67;;;4.73;;
14181;SDS011;7171;50.936;6.764;2024-01-06T14:27:01;10.47;;;5.67;;
14181;SDS011;7171;50.936;6.764;2024-01-06T14:29:29;12.63;;;6.10;;
14181;SDS011;7171;50.936;6.764;2024-01-06T14:31:56;11.33;;;5.60;;
14181;SDS011;7171;50.936;6.764;2024-01-06T14:34:23;11.10;;;5.50;;
14181;SDS011;7171;50.936;6.764;2024-01-06T14:36:51;12.73;;;6.13;;
14181;SDS011;7171;50.936;6.764;2024-01-06T14:39:17;14.83;;;7.27;;
14181;SDS011;7171;50.936;6.764;2024-01-06T14:41:46;11.50;;;5.43;;
14181;SDS011;7171;50.936;6.764;2024-01-06T14:44:14;9.73;;;5.63;;
14181;SDS011;7171;50.936;6.764;2024-01-06T14:46:40;10.93;;;5.83;;
14181;SDS011;7171;50.936;6.764;2024-01-06T14:49:07;9.80;;;5.87;;
14181;SDS011;7171;50.936;6.764;2024-01-06T14:51:35;11.40;;;6.33;;
14181;SDS011;7171;50.936;6.764;2024-01-06T14:54:03;10.17;;;5.80;;
14181;SDS011;7171;50.936;6.764;2024-01-06T14:56:32;12.17;;;6.07;;
14181;SDS011;7171;50.936;6.764;2024-01-06T14:58:58;13.30;;;6.70;;